createdAt,value
2018-12-18T00:00:16.445Z,6.50
2018-12-18T00:02:45.996Z,6.50
2018-12-18T00:05:19.404Z,6.50
2018-12-18T00:07:46.973Z,6.50
2018-12-18T00:10:14.581Z,6.50
2018-12-18T00:12:42.144Z,6.50
2018-12-18T00:15:09.882Z,6.50
2018-12-18T00:17:37.524Z,6.40
2018-12-18T00:20:05.798Z,6.50
2018-12-18T00:22:33.381Z,6.40
2018-12-18T00:25:00.998Z,6.50
2018-12-18T00:27:28.566Z,6.50
2018-12-18T00:29:56.163Z,6.50
2018-12-18T00:32:23.725Z,6.50
2018-12-18T00:34:51.307Z,6.50
2018-12-18T00:37:18.897Z,6.50
2018-12-18T00:39:46.756Z,6.50
2018-12-18T00:42:14.371Z,6.40
2018-12-18T00:44:41.937Z,6.40
2018-12-18T00:47:09.501Z,6.40
2018-12-18T00:49:37.141Z,6.30
2018-12-18T00:52:04.720Z,6.30
2018-12-18T00:54:32.345Z,6.40
2018-12-18T00:56:59.955Z,6.50
2018-12-18T00:59:27.521Z,6.40
2018-12-18T01:02:00.276Z,6.50
2018-12-18T01:04:27.906Z,6.50
2018-12-18T01:06:55.524Z,6.50
2018-12-18T01:09:23.112Z,6.40
2018-12-18T01:11:50.844Z,6.30
2018-12-18T01:14:19.049Z,6.40
2018-12-18T01:16:46.651Z,6.30
2018-12-18T01:19:14.247Z,6.30
2018-12-18T01:21:41.886Z,6.30
2018-12-18T01:24:09.491Z,6.20
2018-12-18T01:26:37.083Z,6.20
2018-12-18T01:29:04.685Z,6.30
2018-12-18T01:31:32.268Z,6.20
2018-12-18T01:33:59.870Z,6.00
2018-12-18T01:36:27.573Z,5.90
2018-12-18T01:38:55.183Z,5.90
2018-12-18T01:41:22.779Z,5.90
2018-12-18T01:43:50.358Z,5.80
2018-12-18T01:46:17.951Z,5.80
2018-12-18T01:48:45.623Z,5.80
2018-12-18T01:51:13.217Z,5.80
2018-12-18T01:53:40.777Z,5.60
2018-12-18T01:56:08.362Z,5.70
2018-12-18T01:58:35.955Z,5.70
2018-12-18T02:01:03.508Z,5.70
2018-12-18T02:03:31.093Z,5.70
2018-12-18T02:05:58.781Z,5.70
2018-12-18T02:08:26.386Z,5.70
2018-12-18T02:10:54.035Z,5.60
2018-12-18T02:13:21.650Z,5.50
2018-12-18T02:15:49.978Z,5.60
2018-12-18T02:18:17.963Z,5.60
2018-12-18T02:20:47.075Z,5.60
2018-12-18T02:23:14.831Z,5.60
2018-12-18T02:25:42.813Z,5.50
2018-12-18T02:28:10.545Z,5.40
2018-12-18T02:30:39.583Z,5.30
2018-12-18T02:33:07.288Z,5.20
2018-12-18T02:35:35.915Z,5.10
2018-12-18T02:38:03.729Z,5.00
2018-12-18T02:40:31.518Z,5.00
2018-12-18T02:42:59.333Z,4.90
2018-12-18T02:45:27.088Z,4.80
2018-12-18T02:47:55.355Z,4.80
2018-12-18T02:50:23.072Z,4.90
2018-12-18T02:52:50.898Z,4.90
2018-12-18T02:55:18.655Z,4.90
2018-12-18T02:57:46.568Z,4.90
2018-12-18T03:00:14.362Z,4.80
2018-12-18T03:02:42.205Z,5.00
2018-12-18T03:05:10.061Z,4.90
2018-12-18T03:07:39.634Z,4.80
2018-12-18T03:10:07.597Z,4.80
2018-12-18T03:12:35.384Z,4.70
2018-12-18T03:15:03.228Z,4.70
2018-12-18T03:17:31.050Z,4.80
2018-12-18T03:19:58.771Z,4.80
2018-12-18T03:22:26.654Z,4.90
2018-12-18T03:24:54.476Z,5.10
2018-12-18T03:27:22.361Z,5.20
2018-12-18T03:29:50.129Z,5.20
2018-12-18T03:32:18.443Z,5.10
2018-12-18T03:34:46.153Z,5.10
2018-12-18T03:37:14.805Z,5.10
2018-12-18T03:39:42.528Z,5.10
2018-12-18T03:42:10.212Z,5.00
2018-12-18T03:44:38.064Z,5.00
2018-12-18T03:47:05.766Z,4.90
2018-12-18T03:49:33.451Z,4.90
2018-12-18T03:52:01.438Z,4.90
2018-12-18T03:54:29.160Z,4.80
2018-12-18T03:56:57.323Z,4.80
2018-12-18T03:59:25.334Z,4.80
2018-12-18T04:01:53.953Z,4.80
2018-12-18T04:04:22.038Z,4.90
2018-12-18T04:06:49.689Z,4.90
2018-12-18T04:09:17.662Z,4.70
2018-12-18T04:11:51.392Z,4.60
2018-12-18T04:14:19.353Z,4.60
2018-12-18T04:16:47.499Z,4.50
2018-12-18T04:19:15.566Z,4.50
2018-12-18T04:21:43.383Z,4.40
2018-12-18T04:24:11.136Z,4.30
2018-12-18T04:26:38.828Z,4.30
2018-12-18T04:29:06.722Z,4.10
2018-12-18T04:31:34.500Z,4.10
2018-12-18T04:34:02.207Z,4.10
2018-12-18T04:36:29.824Z,4.10
2018-12-18T04:38:57.485Z,4.10
2018-12-18T04:41:25.537Z,3.90
2018-12-18T04:43:53.267Z,3.90
2018-12-18T04:46:22.348Z,3.90
2018-12-18T04:48:50.203Z,3.80
2018-12-18T04:51:17.803Z,3.80
2018-12-18T04:53:45.617Z,3.80
2018-12-18T04:56:13.730Z,3.70
2018-12-18T04:58:41.912Z,3.80
2018-12-18T05:01:09.520Z,3.80
2018-12-18T05:03:37.174Z,3.80
2018-12-18T05:06:05.499Z,3.70
2018-12-18T05:08:33.231Z,3.80
2018-12-18T05:11:01.351Z,3.90
2018-12-18T05:13:30.193Z,4.00
2018-12-18T05:15:58.829Z,4.00
2018-12-18T05:18:26.532Z,4.10
2018-12-18T05:20:54.179Z,4.20
2018-12-18T05:23:23.628Z,4.20
2018-12-18T05:25:51.538Z,4.20
2018-12-18T05:28:19.897Z,4.30
2018-12-18T05:30:47.915Z,4.30
2018-12-18T05:33:15.729Z,4.30
2018-12-18T05:35:43.723Z,4.30
2018-12-18T05:38:11.365Z,4.30
2018-12-18T05:40:39.028Z,4.40
2018-12-18T05:43:08.064Z,4.40
2018-12-18T05:45:36.159Z,4.40
2018-12-18T05:48:03.960Z,4.40
2018-12-18T05:50:31.917Z,4.50
2018-12-18T05:52:59.987Z,4.50
2018-12-18T05:55:27.625Z,4.50
2018-12-18T05:57:55.345Z,4.50
2018-12-18T06:00:23.017Z,4.40
2018-12-18T06:02:52.383Z,4.50
2018-12-18T06:05:20.058Z,4.50
2018-12-18T06:07:48.088Z,4.40
2018-12-18T06:10:16.241Z,4.50
2018-12-18T06:12:46.027Z,4.50
2018-12-18T06:15:13.997Z,4.50
2018-12-18T06:17:41.854Z,4.50
2018-12-18T06:20:10.006Z,4.50
2018-12-18T06:22:38.042Z,4.60
2018-12-18T06:25:06.098Z,4.60
2018-12-18T06:27:34.594Z,4.40
2018-12-18T06:30:02.193Z,4.40
2018-12-18T06:32:31.209Z,4.30
2018-12-18T06:34:59.185Z,4.40
2018-12-18T06:37:27.965Z,4.30
2018-12-18T06:39:55.835Z,4.20
2018-12-18T06:42:23.981Z,4.20
2018-12-18T06:44:52.536Z,4.00
2018-12-18T06:47:20.650Z,3.90
2018-12-18T06:49:48.424Z,3.90
2018-12-18T06:52:16.277Z,3.80
2018-12-18T06:54:43.951Z,3.90
2018-12-18T06:57:12.124Z,3.80
2018-12-18T06:59:39.710Z,3.70
2018-12-18T07:02:07.383Z,3.70
2018-12-18T07:04:35.211Z,3.60
2018-12-18T07:07:02.902Z,3.60
2018-12-18T07:09:32.313Z,3.60
2018-12-18T07:12:00.368Z,3.60
2018-12-18T07:14:29.544Z,3.60
2018-12-18T07:16:57.128Z,3.60
2018-12-18T07:19:24.728Z,3.50
2018-12-18T07:21:52.983Z,3.40
2018-12-18T07:24:20.632Z,3.40
2018-12-18T07:26:48.284Z,3.40
2018-12-18T07:29:15.884Z,3.50
2018-12-18T07:31:43.709Z,3.50
2018-12-18T07:34:11.368Z,3.50
2018-12-18T07:36:39.011Z,3.50
2018-12-18T07:39:07.395Z,3.50
2018-12-18T07:41:35.016Z,3.60
2018-12-18T07:44:02.629Z,3.60
2018-12-18T07:46:30.208Z,3.60
2018-12-18T07:48:57.841Z,3.60
2018-12-18T07:51:25.443Z,3.70
2018-12-18T07:53:53.086Z,3.70
2018-12-18T07:56:20.650Z,3.80
2018-12-18T07:58:48.312Z,3.80
2018-12-18T08:01:16.296Z,3.80
2018-12-18T08:03:44.068Z,3.80
2018-12-18T08:06:11.769Z,3.90
2018-12-18T08:08:39.388Z,3.90
2018-12-18T08:11:06.950Z,4.00
2018-12-18T08:13:34.800Z,4.10
2018-12-18T08:16:02.393Z,4.20
2018-12-18T08:18:30.549Z,4.10
2018-12-18T08:20:58.143Z,4.20
2018-12-18T08:23:25.832Z,4.30
2018-12-18T08:25:53.414Z,4.30
2018-12-18T08:28:20.989Z,4.40
2018-12-18T08:30:48.620Z,4.40
2018-12-18T08:33:16.910Z,4.40
2018-12-18T08:35:44.515Z,4.40
2018-12-18T08:38:12.267Z,4.50
2018-12-18T08:40:39.938Z,4.50
2018-12-18T08:43:17.423Z,4.50
2018-12-18T08:45:46.098Z,7.00
2018-12-18T08:48:13.701Z,4.70
2018-12-18T08:50:41.328Z,4.60
2018-12-18T08:53:09.480Z,4.80
2018-12-18T08:55:37.130Z,4.70
2018-12-18T08:58:04.719Z,4.60
2018-12-18T09:00:33.211Z,4.70
2018-12-18T09:03:01.070Z,4.60
2018-12-18T09:05:28.728Z,4.60
2018-12-18T09:07:56.446Z,4.70
2018-12-18T09:10:24.059Z,4.80
2018-12-18T09:12:51.668Z,4.80
2018-12-18T09:18:25.647Z,4.90
2018-12-18T09:20:53.731Z,4.90
2018-12-18T09:23:21.823Z,4.90
2018-12-18T09:25:49.496Z,4.90
2018-12-18T09:28:17.269Z,4.90
2018-12-18T09:30:44.867Z,4.90
2018-12-18T09:33:12.622Z,5.10
2018-12-18T09:35:41.032Z,5.20
2018-12-18T09:38:14.325Z,5.20
2018-12-18T09:40:47.683Z,5.10
2018-12-18T09:43:21.051Z,5.20
2018-12-18T09:45:48.743Z,5.30
2018-12-18T09:48:16.374Z,5.40
2018-12-18T09:50:43.983Z,5.40
2018-12-18T09:53:11.642Z,5.50
2018-12-18T09:55:39.261Z,5.60
2018-12-18T09:58:08.864Z,5.70
2018-12-18T10:00:36.560Z,5.80
2018-12-18T10:03:04.227Z,5.80
2018-12-18T10:05:32.975Z,5.90
2018-12-18T10:08:01.803Z,6.10
2018-12-18T10:10:29.390Z,6.20
2018-12-18T10:12:57.023Z,6.20
2018-12-18T10:15:25.888Z,6.20
2018-12-18T10:17:53.486Z,6.30
2018-12-18T10:20:21.109Z,6.30
2018-12-18T10:22:49.079Z,6.40
2018-12-18T10:25:16.835Z,6.50
2018-12-18T10:27:44.448Z,6.50
2018-12-18T10:30:12.059Z,6.70
2018-12-18T10:32:39.648Z,10.00
2018-12-18T10:35:07.383Z,14.80
2018-12-18T10:37:35.067Z,19.90
2018-12-18T10:40:02.883Z,23.10
2018-12-18T10:42:30.509Z,24.90
2018-12-18T10:44:58.092Z,25.70
2018-12-18T10:47:25.689Z,26.10
2018-12-18T10:49:53.337Z,26.90
2018-12-18T10:52:20.915Z,27.40
2018-12-18T10:54:48.625Z,27.90
2018-12-18T10:57:16.213Z,28.30
2018-12-18T10:59:43.816Z,29.70
2018-12-18T11:02:12.095Z,30.60
2018-12-18T11:04:39.682Z,31.10
2018-12-18T11:07:07.241Z,31.40
2018-12-18T11:09:34.850Z,32.30
2018-12-18T11:12:02.439Z,33.00
2018-12-18T11:14:30.036Z,32.80
2018-12-18T11:16:57.632Z,33.20
2018-12-18T11:19:25.188Z,33.90
2018-12-18T11:21:52.819Z,33.20
2018-12-18T11:24:28.106Z,34.10
2018-12-18T11:26:55.716Z,34.50
2018-12-18T11:29:23.290Z,33.50
2018-12-18T11:31:50.892Z,32.20
2018-12-18T11:34:18.534Z,31.40
2018-12-18T11:36:46.200Z,30.20
2018-12-18T11:39:13.831Z,28.10
2018-12-18T11:41:41.803Z,26.50
2018-12-18T11:44:09.440Z,26.90
2018-12-18T11:46:37.076Z,25.10
2018-12-18T11:49:04.715Z,24.60
2018-12-18T11:51:32.321Z,24.10
2018-12-18T11:54:00.253Z,25.00
2018-12-18T11:56:28.058Z,25.30
2018-12-18T11:58:55.691Z,25.30
2018-12-18T12:01:23.477Z,25.00
2018-12-18T12:03:51.211Z,26.80
2018-12-18T12:06:23.043Z,25.70
2018-12-18T12:08:48.692Z,25.40
2018-12-18T12:11:16.650Z,25.00
2018-12-18T12:13:44.369Z,24.70
2018-12-18T12:16:11.956Z,24.00
2018-12-18T12:18:39.555Z,24.00
2018-12-18T12:21:07.211Z,23.30
2018-12-18T12:23:34.848Z,21.80
2018-12-18T12:26:04.688Z,20.80
2018-12-18T12:28:32.336Z,21.60
2018-12-18T12:31:00.389Z,20.40
2018-12-18T12:33:38.886Z,20.60
2018-12-18T12:38:40.478Z,21.20
2018-12-18T12:41:08.150Z,20.40
2018-12-18T12:43:35.775Z,20.20
2018-12-18T12:46:03.506Z,19.20
2018-12-18T12:51:37.495Z,18.20
2018-12-18T12:54:05.152Z,18.40
2018-12-18T12:56:32.796Z,16.80
2018-12-18T12:59:00.383Z,16.10
2018-12-18T13:01:28.092Z,15.10
2018-12-18T13:03:56.872Z,14.40
2018-12-18T13:06:24.618Z,13.40
2018-12-18T13:08:52.330Z,13.00
2018-12-18T13:11:20.476Z,12.60
2018-12-18T13:13:48.171Z,12.40
2018-12-18T13:16:15.803Z,12.30
2018-12-18T13:18:43.437Z,12.10
2018-12-18T13:21:11.094Z,11.90
2018-12-18T13:23:38.710Z,12.10
2018-12-18T13:26:06.358Z,11.90
2018-12-18T13:28:34.276Z,11.60
2018-12-18T13:31:01.894Z,11.20
2018-12-18T13:33:29.564Z,11.10
2018-12-18T13:35:57.193Z,11.30
2018-12-18T13:38:25.114Z,11.20
2018-12-18T13:40:55.133Z,11.10
2018-12-18T13:43:22.765Z,11.00
2018-12-18T13:45:50.451Z,11.00
2018-12-18T13:48:18.094Z,11.00
2018-12-18T13:50:45.839Z,10.90
2018-12-18T13:53:13.485Z,10.80
2018-12-18T13:55:41.074Z,10.70
2018-12-18T13:58:08.666Z,10.80
2018-12-18T14:00:36.493Z,10.80
2018-12-18T14:03:04.145Z,10.80
2018-12-18T14:05:31.739Z,10.60
2018-12-18T14:07:59.366Z,10.40
2018-12-18T14:10:27.106Z,10.40
2018-12-18T14:12:56.561Z,10.20
2018-12-18T14:15:24.783Z,9.90
2018-12-18T14:17:52.525Z,9.80
2018-12-18T14:20:20.459Z,9.70
2018-12-18T14:22:48.156Z,9.60
2018-12-18T14:25:15.843Z,9.60
2018-12-18T14:30:17.423Z,9.60
2018-12-18T14:32:45.138Z,9.60
2018-12-18T14:35:12.711Z,9.50
2018-12-18T14:37:40.287Z,9.40
2018-12-18T14:40:15.547Z,9.30
2018-12-18T14:42:43.653Z,9.30
2018-12-18T14:45:11.283Z,9.30
2018-12-18T14:47:39.171Z,6.10
2018-12-18T14:50:07.230Z,9.20
2018-12-18T14:52:34.883Z,9.20
2018-12-18T14:55:02.878Z,9.00
2018-12-18T14:57:30.632Z,8.80
2018-12-18T14:59:58.228Z,8.70
2018-12-18T15:02:25.814Z,8.60
2018-12-18T15:04:53.419Z,8.50
2018-12-18T15:07:21.093Z,8.40
2018-12-18T15:09:49.020Z,8.30
2018-12-18T15:14:50.407Z,8.10
2018-12-18T15:17:18.094Z,8.00
2018-12-18T15:19:45.750Z,7.80
2018-12-18T15:22:13.478Z,7.80
2018-12-18T15:24:41.283Z,7.70
2018-12-18T15:27:08.874Z,7.70
2018-12-18T15:29:36.520Z,7.50
2018-12-18T15:32:04.151Z,7.50
2018-12-18T15:34:31.969Z,7.40
2018-12-18T15:36:59.644Z,7.40
2018-12-18T15:39:27.528Z,7.30
2018-12-18T15:41:55.329Z,7.30
2018-12-18T15:44:23.033Z,7.20
2018-12-18T15:46:52.284Z,7.20
2018-12-18T15:49:20.149Z,7.20
2018-12-18T15:51:47.784Z,7.10
2018-12-18T15:54:15.409Z,7.10
2018-12-18T15:56:43.113Z,7.00
2018-12-18T15:59:10.762Z,6.90
2018-12-18T16:01:38.356Z,6.90
2018-12-18T16:04:05.939Z,6.90
2018-12-18T16:06:33.568Z,7.00
2018-12-18T16:09:01.172Z,7.10
2018-12-18T16:11:28.749Z,7.00
2018-12-18T16:13:56.416Z,7.00
2018-12-18T16:16:24.073Z,7.00
2018-12-18T16:18:51.717Z,7.00
2018-12-18T16:21:19.447Z,7.00
2018-12-18T16:23:47.057Z,6.90
2018-12-18T16:26:14.646Z,6.80
2018-12-18T16:28:42.355Z,6.80
2018-12-18T16:31:09.945Z,6.90
2018-12-18T16:33:37.616Z,6.90
2018-12-18T16:36:05.215Z,6.80
2018-12-18T16:38:32.882Z,6.90
2018-12-18T16:41:00.596Z,6.80
2018-12-18T16:43:28.194Z,6.60
2018-12-18T16:45:56.125Z,6.60
2018-12-18T16:48:23.788Z,6.50
2018-12-18T16:50:51.398Z,6.40
2018-12-18T16:53:18.979Z,6.40
2018-12-18T16:55:46.657Z,6.50
2018-12-18T16:58:15.532Z,6.40
2018-12-18T17:00:43.566Z,6.30
2018-12-18T17:03:11.158Z,6.40
2018-12-18T17:05:38.716Z,6.20
2018-12-18T17:08:06.304Z,6.20
2018-12-18T17:10:33.869Z,6.20
2018-12-18T17:13:01.519Z,6.20
2018-12-18T17:15:29.180Z,6.20
2018-12-18T17:17:56.748Z,6.20
2018-12-18T17:20:24.429Z,6.20
2018-12-18T17:22:52.048Z,6.10
2018-12-18T17:25:19.736Z,6.10
2018-12-18T17:27:47.291Z,6.00
2018-12-18T17:30:14.923Z,6.00
2018-12-18T17:32:42.545Z,6.00
2018-12-18T17:35:10.281Z,6.00
2018-12-18T17:37:38.551Z,5.80
2018-12-18T17:40:07.238Z,5.70
2018-12-18T17:42:35.255Z,5.80
2018-12-18T17:45:03.304Z,5.70
2018-12-18T17:47:31.368Z,5.50
2018-12-18T17:49:59.373Z,5.60
2018-12-18T17:52:27.581Z,5.40
2018-12-18T17:54:55.642Z,5.40
2018-12-18T17:57:23.696Z,5.30
2018-12-18T17:59:51.477Z,5.20
2018-12-18T18:02:19.088Z,5.30
2018-12-18T18:04:46.687Z,5.30
2018-12-18T18:07:14.292Z,5.30
2018-12-18T18:09:42.058Z,5.30
2018-12-18T18:12:09.636Z,5.30
2018-12-18T18:14:37.212Z,5.20
2018-12-18T18:17:04.817Z,5.30
2018-12-18T18:19:32.463Z,5.30
2018-12-18T18:22:00.263Z,5.20
2018-12-18T18:24:32.007Z,5.10
2018-12-18T18:26:59.601Z,4.90
2018-12-18T18:29:27.155Z,4.90
2018-12-18T18:31:54.781Z,5.00
2018-12-18T18:34:22.349Z,4.90
2018-12-18T18:36:49.979Z,4.90
2018-12-18T18:39:17.551Z,4.70
2018-12-18T18:41:45.195Z,4.70
2018-12-18T18:44:13.104Z,4.70
2018-12-18T18:46:40.721Z,4.70
2018-12-18T18:49:08.309Z,4.50
2018-12-18T18:51:35.957Z,4.50
2018-12-18T18:54:03.660Z,4.50
2018-12-18T18:56:31.243Z,4.50
2018-12-18T18:58:58.835Z,4.50
2018-12-18T19:01:26.403Z,4.50
2018-12-18T19:03:54.110Z,4.40
2018-12-18T19:06:21.685Z,4.60
2018-12-18T19:08:49.279Z,4.70
2018-12-18T19:11:16.900Z,4.70
2018-12-18T19:13:44.470Z,4.60
2018-12-18T19:16:12.153Z,4.30
2018-12-18T19:18:39.868Z,4.00
2018-12-18T19:21:07.448Z,3.80
2018-12-18T19:23:35.067Z,3.80
2018-12-18T19:26:02.664Z,3.80
2018-12-18T19:28:30.296Z,3.80
2018-12-18T19:30:57.935Z,3.80
2018-12-18T19:33:25.531Z,3.90
2018-12-18T19:35:53.166Z,4.00
2018-12-18T19:38:21.359Z,4.10
2018-12-18T19:40:48.963Z,4.20
2018-12-18T19:43:16.527Z,4.30
2018-12-18T19:45:44.192Z,4.30
2018-12-18T19:48:11.762Z,4.30
2018-12-18T19:50:39.358Z,4.30
2018-12-18T19:53:06.950Z,4.20
2018-12-18T19:55:34.569Z,4.10
2018-12-18T19:58:02.133Z,4.00
2018-12-18T20:00:29.728Z,4.00
2018-12-18T20:02:57.378Z,4.00
2018-12-18T20:05:24.934Z,3.90
2018-12-18T20:07:52.551Z,3.90
2018-12-18T20:10:20.172Z,3.90
2018-12-18T20:12:47.783Z,3.90
2018-12-18T20:15:15.395Z,3.90
2018-12-18T20:17:42.999Z,3.80
2018-12-18T20:20:10.680Z,3.90
2018-12-18T20:22:38.320Z,3.90
2018-12-18T20:25:06.043Z,3.90
2018-12-18T20:27:33.602Z,3.80
2018-12-18T20:30:01.407Z,3.80
2018-12-18T20:32:28.984Z,3.80
2018-12-18T20:34:56.587Z,3.90
2018-12-18T20:37:24.196Z,3.90
2018-12-18T20:39:51.822Z,3.90
2018-12-18T20:42:19.388Z,3.60
2018-12-18T20:44:46.983Z,3.40
2018-12-18T20:47:14.597Z,3.30
2018-12-18T20:49:42.683Z,3.30
2018-12-18T20:52:10.323Z,3.20
2018-12-18T20:54:37.927Z,3.40
2018-12-18T20:57:05.583Z,3.30
2018-12-18T20:59:33.164Z,3.10
2018-12-18T21:02:00.817Z,3.20
2018-12-18T21:04:28.395Z,3.20
2018-12-18T21:06:56.247Z,3.10
2018-12-18T21:09:23.859Z,3.00
2018-12-18T21:11:51.466Z,2.90
2018-12-18T21:14:19.079Z,3.00
2018-12-18T21:16:46.639Z,2.90
2018-12-18T21:19:14.214Z,2.80
2018-12-18T21:21:41.828Z,2.80
2018-12-18T21:24:09.541Z,2.90
2018-12-18T21:26:37.152Z,2.90
2018-12-18T21:29:04.785Z,2.90
2018-12-18T21:31:32.408Z,2.90
2018-12-18T21:34:00.052Z,2.80
2018-12-18T21:36:27.722Z,2.80
2018-12-18T21:38:55.333Z,2.70
2018-12-18T21:41:22.912Z,2.70
2018-12-18T21:43:50.474Z,2.70
2018-12-18T21:46:18.271Z,2.70
2018-12-18T21:48:45.867Z,2.70
2018-12-18T21:51:13.530Z,2.90
2018-12-18T21:53:41.129Z,2.90
2018-12-18T21:56:08.703Z,3.00
2018-12-18T21:58:36.315Z,3.00
2018-12-18T22:01:03.938Z,2.90
2018-12-18T22:03:31.539Z,2.70
2018-12-18T22:05:59.150Z,2.60
2018-12-18T22:08:26.754Z,2.70
2018-12-18T22:10:54.371Z,2.90
2018-12-18T22:13:21.945Z,2.80
2018-12-18T22:15:49.565Z,2.80
2018-12-18T22:18:17.173Z,2.70
2018-12-18T22:20:44.798Z,2.60
2018-12-18T22:23:12.422Z,2.50
2018-12-18T22:25:39.993Z,2.60
2018-12-18T22:28:07.575Z,2.60
2018-12-18T22:30:35.194Z,2.40
2018-12-18T22:33:02.788Z,2.30
2018-12-18T22:35:30.395Z,2.30
2018-12-18T22:37:57.956Z,2.30
2018-12-18T22:40:25.667Z,2.30
2018-12-18T22:42:53.230Z,2.30
2018-12-18T22:45:20.839Z,2.30
2018-12-18T22:47:48.403Z,2.20
2018-12-18T22:50:16.019Z,2.20
2018-12-18T22:52:43.671Z,2.20
2018-12-18T22:55:11.250Z,2.20
2018-12-18T22:57:38.880Z,2.40
2018-12-18T23:00:08.649Z,2.40
2018-12-18T23:02:36.323Z,2.60
2018-12-18T23:05:04.626Z,2.40
2018-12-18T23:07:32.274Z,2.40
2018-12-18T23:09:59.890Z,2.40
2018-12-18T23:12:27.570Z,2.40
2018-12-18T23:14:55.143Z,2.30
2018-12-18T23:17:22.767Z,2.20
2018-12-18T23:19:50.339Z,2.20
2018-12-18T23:22:17.942Z,2.20
2018-12-18T23:24:45.525Z,2.20
2018-12-18T23:27:13.139Z,2.20
2018-12-18T23:29:40.719Z,2.10
2018-12-18T23:32:08.296Z,2.20
2018-12-18T23:34:35.970Z,2.10
2018-12-18T23:37:03.612Z,2.00
2018-12-18T23:39:31.196Z,2.00
2018-12-18T23:41:59.103Z,2.00
2018-12-18T23:44:26.679Z,1.90
2018-12-18T23:46:54.258Z,1.90
2018-12-18T23:49:21.861Z,2.00
2018-12-18T23:51:49.427Z,2.10
2018-12-18T23:54:17.026Z,1.90
2018-12-18T23:56:44.599Z,1.90
2018-12-18T23:59:12.201Z,1.90
